sensor_id;sensor_type;location;lat;lon;timestamp;temperature;humidity
25582;DHT22;13462;50.764;4.332;2022-11-18T00:01:29;9.60;99.90
25582;DHT22;13462;50.764;4.332;2022-11-18T00:03:55;9.70;99.90
25582;DHT22;13462;50.764;4.332;2022-11-18T00:06:26;9.70;99.90
25582;DHT22;13462;50.764;4.332;2022-11-18T00:08:53;9.80;99.90
25582;DHT22;13462;50.764;4.332;2022-11-18T00:11:21;9.80;99.90
25582;DHT22;13462;50.764;4.332;2022-11-18T00:14:16;9.80;99.90
25582;DHT22;13462;50.764;4.332;2022-11-18T00:16:55;9.90;99.90
25582;DHT22;13462;50.764;4.332;2022-11-18T00:19:29;9.80;99.90
25582;DHT22;13462;50.764;4.332;2022-11-18T00:21:55;9.80;99.90
25582;DHT22;13462;50.764;4.332;2022-11-18T00:24:21;9.60;99.90
25582;DHT22;13462;50.764;4.332;2022-11-18T00:26:47;9.70;99.90
25582;DHT22;13462;50.764;4.332;2022-11-18T00:29:16;9.70;99.90
25582;DHT22;13462;50.764;4.332;2022-11-18T00:31:42;9.70;99.90
25582;DHT22;13462;50.764;4.332;2022-11-18T00:34:10;9.80;99.90
25582;DHT22;13462;50.764;4.332;2022-11-18T00:36:37;9.70;99.90
25582;DHT22;13462;50.764;4.332;2022-11-18T00:39:03;9.70;99.90
25582;DHT22;13462;50.764;4.332;2022-11-18T00:41:29;9.80;99.90
25582;DHT22;13462;50.764;4.332;2022-11-18T00:44:15;9.80;99.90
25582;DHT22;13462;50.764;4.332;2022-11-18T00:46:41;9.80;99.90
25582;DHT22;13462;50.764;4.332;2022-11-18T00:49:08;9.70;99.90
25582;DHT22;13462;50.764;4.332;2022-11-18T00:51:34;9.70;99.90
25582;DHT22;13462;50.764;4.332;2022-11-18T00:54:00;9.70;99.90
25582;DHT22;13462;50.764;4.332;2022-11-18T00:56:25;9.70;99.90
25582;DHT22;13462;50.764;4.332;2022-11-18T00:58:51;9.80;99.90
25582;DHT22;13462;50.764;4.332;2022-11-18T01:01:17;9.80;99.90
25582;DHT22;13462;50.764;4.332;2022-11-18T01:03:43;9.90;99.90
25582;DHT22;13462;50.764;4.332;2022-11-18T01:06:08;9.90;99.90
25582;DHT22;13462;50.764;4.332;2022-11-18T01:08:44;9.80;99.90
25582;DHT22;13462;50.764;4.332;2022-11-18T01:11:10;9.70;99.90
25582;DHT22;13462;50.764;4.332;2022-11-18T01:13:54;9.80;99.90
25582;DHT22;13462;50.764;4.332;2022-11-18T01:16:21;9.80;99.90
25582;DHT22;13462;50.764;4.332;2022-11-18T01:18:48;9.70;99.90
25582;DHT22;13462;50.764;4.332;2022-11-18T01:21:14;9.60;99.90
25582;DHT22;13462;50.764;4.332;2022-11-18T01:23:39;9.60;99.90
25582;DHT22;13462;50.764;4.332;2022-11-18T01:26:07;9.60;99.90
25582;DHT22;13462;50.764;4.332;2022-11-18T01:28:34;9.60;99.90
25582;DHT22;13462;50.764;4.332;2022-11-18T01:31:14;9.60;99.90
25582;DHT22;13462;50.764;4.332;2022-11-18T01:33:41;9.60;99.90
25582;DHT22;13462;50.764;4.332;2022-11-18T01:36:18;9.60;99.90
25582;DHT22;13462;50.764;4.332;2022-11-18T01:38:49;9.50;99.90
25582;DHT22;13462;50.764;4.332;2022-11-18T01:41:19;9.50;99.90
25582;DHT22;13462;50.764;4.332;2022-11-18T01:44:51;9.40;99.90
25582;DHT22;13462;50.764;4.332;2022-11-18T01:46:50;9.40;99.90
25582;DHT22;13462;50.764;4.332;2022-11-18T01:49:16;9.30;99.90
25582;DHT22;13462;50.764;4.332;2022-11-18T01:52:00;9.30;99.90
25582;DHT22;13462;50.764;4.332;2022-11-18T01:54:34;9.20;99.90
25582;DHT22;13462;50.764;4.332;2022-11-18T01:57:06;9.40;99.90
25582;DHT22;13462;50.764;4.332;2022-11-18T01:59:37;9.30;99.90
25582;DHT22;13462;50.764;4.332;2022-11-18T02:02:09;9.40;99.90
25582;DHT22;13462;50.764;4.332;2022-11-18T02:04:38;9.40;99.90
25582;DHT22;13462;50.764;4.332;2022-11-18T02:07:06;9.40;99.90
25582;DHT22;13462;50.764;4.332;2022-11-18T02:09:32;9.40;99.90
25582;DHT22;13462;50.764;4.332;2022-11-18T02:11:57;9.50;99.90
25582;DHT22;13462;50.764;4.332;2022-11-18T02:14:29;9.30;99.90
25582;DHT22;13462;50.764;4.332;2022-11-18T02:19:35;9.20;99.90
25582;DHT22;13462;50.764;4.332;2022-11-18T02:25:05;9.10;99.90
25582;DHT22;13462;50.764;4.332;2022-11-18T02:27:52;9.00;99.90
25582;DHT22;13462;50.764;4.332;2022-11-18T02:30:22;9.00;99.90
25582;DHT22;13462;50.764;4.332;2022-11-18T02:35:23;9.00;99.90
25582;DHT22;13462;50.764;4.332;2022-11-18T02:40:49;8.80;99.90
25582;DHT22;13462;50.764;4.332;2022-11-18T02:43:31;8.90;99.90
25582;DHT22;13462;50.764;4.332;2022-11-18T02:46:06;8.80;99.90
25582;DHT22;13462;50.764;4.332;2022-11-18T02:48:36;8.80;99.90
25582;DHT22;13462;50.764;4.332;2022-11-18T02:51:05;8.80;99.90
25582;DHT22;13462;50.764;4.332;2022-11-18T02:53:32;8.70;99.90
25582;DHT22;13462;50.764;4.332;2022-11-18T02:56:00;8.70;99.90
25582;DHT22;13462;50.764;4.332;2022-11-18T02:58:27;8.70;99.90
25582;DHT22;13462;50.764;4.332;2022-11-18T03:00:57;8.70;99.90
25582;DHT22;13462;50.764;4.332;2022-11-18T03:09:06;8.50;99.90
25582;DHT22;13462;50.764;4.332;2022-11-18T03:17:12;8.50;99.90
25582;DHT22;13462;50.764;4.332;2022-11-18T03:30:45;8.30;99.90
25582;DHT22;13462;50.764;4.332;2022-11-18T03:33:19;8.20;99.90
25582;DHT22;13462;50.764;4.332;2022-11-18T03:35:48;8.30;99.90
25582;DHT22;13462;50.764;4.332;2022-11-18T03:38:17;8.20;99.90
25582;DHT22;13462;50.764;4.332;2022-11-18T03:40:52;8.20;99.90
25582;DHT22;13462;50.764;4.332;2022-11-18T03:43:22;8.30;99.90
25582;DHT22;13462;50.764;4.332;2022-11-18T03:45:59;8.30;99.90
25582;DHT22;13462;50.764;4.332;2022-11-18T03:48:33;8.20;99.90
25582;DHT22;13462;50.764;4.332;2022-11-18T03:51:08;8.20;99.90
25582;DHT22;13462;50.764;4.332;2022-11-18T03:53:35;8.10;99.90
25582;DHT22;13462;50.764;4.332;2022-11-18T03:56:09;8.20;99.90
25582;DHT22;13462;50.764;4.332;2022-11-18T03:58:47;8.20;99.90
25582;DHT22;13462;50.764;4.332;2022-11-18T04:01:32;8.10;99.90
25582;DHT22;13462;50.764;4.332;2022-11-18T04:03:59;8.10;99.90
25582;DHT22;13462;50.764;4.332;2022-11-18T04:06:40;8.10;99.90
25582;DHT22;13462;50.764;4.332;2022-11-18T04:09:16;8.10;99.90
25582;DHT22;13462;50.764;4.332;2022-11-18T04:11:47;8.10;99.90
25582;DHT22;13462;50.764;4.332;2022-11-18T04:14:35;8.00;99.90
25582;DHT22;13462;50.764;4.332;2022-11-18T04:17:08;8.00;99.90
25582;DHT22;13462;50.764;4.332;2022-11-18T04:19:35;8.10;99.90
25582;DHT22;13462;50.764;4.332;2022-11-18T04:22:00;8.00;99.90
25582;DHT22;13462;50.764;4.332;2022-11-18T04:24:26;8.10;99.90
25582;DHT22;13462;50.764;4.332;2022-11-18T04:26:52;8.10;99.90
25582;DHT22;13462;50.764;4.332;2022-11-18T04:29:17;8.10;99.90
25582;DHT22;13462;50.764;4.332;2022-11-18T04:31:43;8.20;99.90
25582;DHT22;13462;50.764;4.332;2022-11-18T04:34:09;8.10;99.90
25582;DHT22;13462;50.764;4.332;2022-11-18T04:36:34;8.10;99.90
25582;DHT22;13462;50.764;4.332;2022-11-18T04:39:03;8.10;99.90
25582;DHT22;13462;50.764;4.332;2022-11-18T04:41:29;8.10;99.90
25582;DHT22;13462;50.764;4.332;2022-11-18T04:44:13;8.10;99.90
25582;DHT22;13462;50.764;4.332;2022-11-18T04:46:41;8.00;99.90
25582;DHT22;13462;50.764;4.332;2022-11-18T04:49:11;8.00;99.90
25582;DHT22;13462;50.764;4.332;2022-11-18T04:51:40;8.10;99.90
25582;DHT22;13462;50.764;4.332;2022-11-18T04:54:06;8.00;99.90
25582;DHT22;13462;50.764;4.332;2022-11-18T04:56:32;7.90;99.90
25582;DHT22;13462;50.764;4.332;2022-11-18T04:59:01;7.90;99.90
25582;DHT22;13462;50.764;4.332;2022-11-18T05:01:28;7.90;99.90
25582;DHT22;13462;50.764;4.332;2022-11-18T05:03:55;8.00;99.90
25582;DHT22;13462;50.764;4.332;2022-11-18T05:06:20;7.90;99.90
25582;DHT22;13462;50.764;4.332;2022-11-18T05:08:46;7.90;99.90
25582;DHT22;13462;50.764;4.332;2022-11-18T05:11:12;7.80;99.90
25582;DHT22;13462;50.764;4.332;2022-11-18T05:13:56;7.80;99.90
25582;DHT22;13462;50.764;4.332;2022-11-18T05:16:22;7.70;99.90
25582;DHT22;13462;50.764;4.332;2022-11-18T05:18:48;7.80;99.90
25582;DHT22;13462;50.764;4.332;2022-11-18T05:21:13;7.80;99.90
25582;DHT22;13462;50.764;4.332;2022-11-18T05:23:39;7.80;99.90
25582;DHT22;13462;50.764;4.332;2022-11-18T05:26:07;7.80;99.90
25582;DHT22;13462;50.764;4.332;2022-11-18T05:28:33;7.90;99.90
25582;DHT22;13462;50.764;4.332;2022-11-18T05:30:59;7.90;99.90
25582;DHT22;13462;50.764;4.332;2022-11-18T05:33:25;7.80;99.90
25582;DHT22;13462;50.764;4.332;2022-11-18T05:35:50;7.70;99.90
25582;DHT22;13462;50.764;4.332;2022-11-18T05:38:19;7.70;99.90
25582;DHT22;13462;50.764;4.332;2022-11-18T05:40:47;7.70;99.90
25582;DHT22;13462;50.764;4.332;2022-11-18T05:43:18;7.70;99.90
25582;DHT22;13462;50.764;4.332;2022-11-18T05:46:03;7.70;99.90
25582;DHT22;13462;50.764;4.332;2022-11-18T05:49:02;7.70;99.90
25582;DHT22;13462;50.764;4.332;2022-11-18T05:51:31;7.60;99.90
25582;DHT22;13462;50.764;4.332;2022-11-18T05:54:03;7.60;99.90
25582;DHT22;13462;50.764;4.332;2022-11-18T05:56:51;7.60;99.90
25582;DHT22;13462;50.764;4.332;2022-11-18T05:59:17;7.70;99.90
25582;DHT22;13462;50.764;4.332;2022-11-18T06:02:00;7.60;99.90
25582;DHT22;13462;50.764;4.332;2022-11-18T06:07:26;7.70;99.90
25582;DHT22;13462;50.764;4.332;2022-11-18T06:09:58;7.70;99.90
25582;DHT22;13462;50.764;4.332;2022-11-18T06:12:48;7.70;99.90
25582;DHT22;13462;50.764;4.332;2022-11-18T06:15:27;7.70;99.90
25582;DHT22;13462;50.764;4.332;2022-11-18T06:18:28;7.70;99.90
25582;DHT22;13462;50.764;4.332;2022-11-18T06:27:12;7.70;99.90
25582;DHT22;13462;50.764;4.332;2022-11-18T06:30:19;7.70;99.90
25582;DHT22;13462;50.764;4.332;2022-11-18T06:32:47;7.60;99.90
25582;DHT22;13462;50.764;4.332;2022-11-18T06:35:13;7.70;99.90
25582;DHT22;13462;50.764;4.332;2022-11-18T06:37:39;7.70;99.90
25582;DHT22;13462;50.764;4.332;2022-11-18T06:40:05;7.70;99.90
25582;DHT22;13462;50.764;4.332;2022-11-18T06:45:29;7.70;99.90
25582;DHT22;13462;50.764;4.332;2022-11-18T06:48:17;7.80;99.90
25582;DHT22;13462;50.764;4.332;2022-11-18T06:50:46;7.70;99.90
25582;DHT22;13462;50.764;4.332;2022-11-18T06:53:21;7.70;99.90
25582;DHT22;13462;50.764;4.332;2022-11-18T06:56:05;7.80;99.90
25582;DHT22;13462;50.764;4.332;2022-11-18T06:58:38;7.80;99.90
25582;DHT22;13462;50.764;4.332;2022-11-18T07:01:23;7.90;99.90
25582;DHT22;13462;50.764;4.332;2022-11-18T07:03:52;7.90;99.90
25582;DHT22;13462;50.764;4.332;2022-11-18T07:06:30;8.00;99.90
25582;DHT22;13462;50.764;4.332;2022-11-18T07:09:06;8.00;99.90
25582;DHT22;13462;50.764;4.332;2022-11-18T07:11:35;8.00;99.90
25582;DHT22;13462;50.764;4.332;2022-11-18T07:14:02;8.10;99.90
25582;DHT22;13462;50.764;4.332;2022-11-18T07:16:32;8.10;99.90
25582;DHT22;13462;50.764;4.332;2022-11-18T07:18:58;8.10;99.90
25582;DHT22;13462;50.764;4.332;2022-11-18T07:21:26;8.10;99.90
25582;DHT22;13462;50.764;4.332;2022-11-18T07:23:55;8.20;99.90
25582;DHT22;13462;50.764;4.332;2022-11-18T07:26:21;8.20;99.90
25582;DHT22;13462;50.764;4.332;2022-11-18T07:28:53;8.30;99.90
25582;DHT22;13462;50.764;4.332;2022-11-18T07:31:19;8.40;99.90
25582;DHT22;13462;50.764;4.332;2022-11-18T07:33:46;8.50;99.90
25582;DHT22;13462;50.764;4.332;2022-11-18T07:36:17;8.60;99.90
25582;DHT22;13462;50.764;4.332;2022-11-18T07:38:44;8.60;99.90
25582;DHT22;13462;50.764;4.332;2022-11-18T07:41:18;8.70;99.90
25582;DHT22;13462;50.764;4.332;2022-11-18T07:43:43;8.70;99.90
25582;DHT22;13462;50.764;4.332;2022-11-18T07:46:13;8.80;99.90
25582;DHT22;13462;50.764;4.332;2022-11-18T07:48:43;8.80;99.90
25582;DHT22;13462;50.764;4.332;2022-11-18T07:51:09;8.70;99.90
25582;DHT22;13462;50.764;4.332;2022-11-18T07:53:38;8.70;99.90
25582;DHT22;13462;50.764;4.332;2022-11-18T07:56:04;8.80;99.90
25582;DHT22;13462;50.764;4.332;2022-11-18T07:58:30;8.80;99.90
25582;DHT22;13462;50.764;4.332;2022-11-18T08:00:56;8.80;99.90
25582;DHT22;13462;50.764;4.332;2022-11-18T08:03:26;8.90;99.90
25582;DHT22;13462;50.764;4.332;2022-11-18T08:05:59;8.90;99.90
25582;DHT22;13462;50.764;4.332;2022-11-18T08:08:25;9.00;99.90
25582;DHT22;13462;50.764;4.332;2022-11-18T08:10:53;9.00;99.90
25582;DHT22;13462;50.764;4.332;2022-11-18T08:13:19;9.10;99.90
25582;DHT22;13462;50.764;4.332;2022-11-18T08:15:45;9.10;99.90
25582;DHT22;13462;50.764;4.332;2022-11-18T08:18:10;9.10;99.90
25582;DHT22;13462;50.764;4.332;2022-11-18T08:20:36;9.10;99.90
25582;DHT22;13462;50.764;4.332;2022-11-18T08:23:02;9.30;99.90
25582;DHT22;13462;50.764;4.332;2022-11-18T08:25:27;9.30;99.90
25582;DHT22;13462;50.764;4.332;2022-11-18T08:27:57;9.20;99.90
25582;DHT22;13462;50.764;4.332;2022-11-18T08:30:22;9.30;99.90
25582;DHT22;13462;50.764;4.332;2022-11-18T08:32:48;9.20;99.90
25582;DHT22;13462;50.764;4.332;2022-11-18T08:35:14;9.10;99.90
25582;DHT22;13462;50.764;4.332;2022-11-18T08:37:39;9.10;99.90
25582;DHT22;13462;50.764;4.332;2022-11-18T08:40:06;9.10;99.90
25582;DHT22;13462;50.764;4.332;2022-11-18T08:42:31;9.20;99.90
25582;DHT22;13462;50.764;4.332;2022-11-18T08:44:57;9.20;99.90
25582;DHT22;13462;50.764;4.332;2022-11-18T08:47:23;9.30;99.90
25582;DHT22;13462;50.764;4.332;2022-11-18T08:49:48;9.40;99.90
25582;DHT22;13462;50.764;4.332;2022-11-18T08:52:14;9.40;99.90
25582;DHT22;13462;50.764;4.332;2022-11-18T08:54:40;9.40;99.90
25582;DHT22;13462;50.764;4.332;2022-11-18T08:57:06;9.40;99.90
25582;DHT22;13462;50.764;4.332;2022-11-18T08:59:31;9.50;99.90
25582;DHT22;13462;50.764;4.332;2022-11-18T09:01:57;9.50;99.90
25582;DHT22;13462;50.764;4.332;2022-11-18T09:04:23;9.50;99.90
25582;DHT22;13462;50.764;4.332;2022-11-18T09:06:48;9.60;99.90
25582;DHT22;13462;50.764;4.332;2022-11-18T09:09:14;9.70;99.90
25582;DHT22;13462;50.764;4.332;2022-11-18T09:11:40;9.70;99.90
25582;DHT22;13462;50.764;4.332;2022-11-18T09:14:09;9.70;99.90
25582;DHT22;13462;50.764;4.332;2022-11-18T09:16:35;9.70;99.90
25582;DHT22;13462;50.764;4.332;2022-11-18T09:19:00;9.90;99.90
25582;DHT22;13462;50.764;4.332;2022-11-18T09:21:26;9.90;99.90
25582;DHT22;13462;50.764;4.332;2022-11-18T09:23:52;9.90;99.90
25582;DHT22;13462;50.764;4.332;2022-11-18T09:26:19;10.00;99.90
25582;DHT22;13462;50.764;4.332;2022-11-18T09:28:46;10.00;99.90
25582;DHT22;13462;50.764;4.332;2022-11-18T09:31:14;10.10;99.90
25582;DHT22;13462;50.764;4.332;2022-11-18T09:33:40;9.90;99.90
25582;DHT22;13462;50.764;4.332;2022-11-18T09:36:28;10.00;99.90
25582;DHT22;13462;50.764;4.332;2022-11-18T09:38:54;10.00;99.90
25582;DHT22;13462;50.764;4.332;2022-11-18T09:46:48;10.20;99.90
25582;DHT22;13462;50.764;4.332;2022-11-18T09:49:31;10.40;99.90
25582;DHT22;13462;50.764;4.332;2022-11-18T09:52:01;10.50;99.90
25582;DHT22;13462;50.764;4.332;2022-11-18T09:54:30;10.70;99.90
25582;DHT22;13462;50.764;4.332;2022-11-18T09:56:58;10.90;99.90
25582;DHT22;13462;50.764;4.332;2022-11-18T09:59:27;11.00;99.90
25582;DHT22;13462;50.764;4.332;2022-11-18T10:02:03;11.00;99.90
25582;DHT22;13462;50.764;4.332;2022-11-18T10:04:38;11.00;99.90
25582;DHT22;13462;50.764;4.332;2022-11-18T10:15:57;11.50;99.90
25582;DHT22;13462;50.764;4.332;2022-11-18T10:18:33;11.60;99.90
25582;DHT22;13462;50.764;4.332;2022-11-18T10:21:12;11.90;99.90
25582;DHT22;13462;50.764;4.332;2022-11-18T10:23:48;11.90;99.90
25582;DHT22;13462;50.764;4.332;2022-11-18T10:26:36;12.00;99.90
25582;DHT22;13462;50.764;4.332;2022-11-18T10:29:02;12.20;99.90
25582;DHT22;13462;50.764;4.332;2022-11-18T10:31:28;12.30;99.90
25582;DHT22;13462;50.764;4.332;2022-11-18T10:33:59;12.40;99.90
25582;DHT22;13462;50.764;4.332;2022-11-18T10:36:28;12.30;99.90
25582;DHT22;13462;50.764;4.332;2022-11-18T10:39:14;12.00;99.90
25582;DHT22;13462;50.764;4.332;2022-11-18T10:41:49;11.90;99.90
25582;DHT22;13462;50.764;4.332;2022-11-18T10:44:39;11.90;99.90
25582;DHT22;13462;50.764;4.332;2022-11-18T10:47:25;12.00;99.90
25582;DHT22;13462;50.764;4.332;2022-11-18T10:49:56;12.00;99.90
25582;DHT22;13462;50.764;4.332;2022-11-18T10:52:23;11.90;99.90
25582;DHT22;13462;50.764;4.332;2022-11-18T10:55:22;11.90;99.90
25582;DHT22;13462;50.764;4.332;2022-11-18T10:57:51;11.70;99.90
25582;DHT22;13462;50.764;4.332;2022-11-18T11:00:44;11.80;99.90
25582;DHT22;13462;50.764;4.332;2022-11-18T11:03:21;11.70;99.90
25582;DHT22;13462;50.764;4.332;2022-11-18T11:05:47;11.70;99.90
25582;DHT22;13462;50.764;4.332;2022-11-18T11:08:21;11.60;99.90
25582;DHT22;13462;50.764;4.332;2022-11-18T11:10:55;11.50;99.90
25582;DHT22;13462;50.764;4.332;2022-11-18T11:13:24;11.60;99.90
25582;DHT22;13462;50.764;4.332;2022-11-18T11:15:54;11.40;99.90
25582;DHT22;13462;50.764;4.332;2022-11-18T11:18:23;11.30;99.90
25582;DHT22;13462;50.764;4.332;2022-11-18T11:21:16;11.30;99.90
25582;DHT22;13462;50.764;4.332;2022-11-18T11:23:42;11.20;99.90
25582;DHT22;13462;50.764;4.332;2022-11-18T11:26:40;11.20;99.90
25582;DHT22;13462;50.764;4.332;2022-11-18T11:32:16;11.10;99.90
25582;DHT22;13462;50.764;4.332;2022-11-18T11:49:09;11.40;99.90
25582;DHT22;13462;50.764;4.332;2022-11-18T11:51:53;11.50;99.90
25582;DHT22;13462;50.764;4.332;2022-11-18T11:59:36;11.70;99.90
25582;DHT22;13462;50.764;4.332;2022-11-18T12:02:22;11.70;99.90
25582;DHT22;13462;50.764;4.332;2022-11-18T12:04:59;11.90;99.90
25582;DHT22;13462;50.764;4.332;2022-11-18T12:07:41;12.00;99.90
25582;DHT22;13462;50.764;4.332;2022-11-18T12:15:52;11.90;99.90
25582;DHT22;13462;50.764;4.332;2022-11-18T12:26:46;11.70;99.90
25582;DHT22;13462;50.764;4.332;2022-11-18T12:31:49;11.80;99.90
25582;DHT22;13462;50.764;4.332;2022-11-18T12:36:54;12.10;99.90
25582;DHT22;13462;50.764;4.332;2022-11-18T12:41:52;12.00;99.90
25582;DHT22;13462;50.764;4.332;2022-11-18T12:44:37;12.00;99.90
25582;DHT22;13462;50.764;4.332;2022-11-18T12:47:06;12.00;99.90
25582;DHT22;13462;50.764;4.332;2022-11-18T12:51:58;12.60;99.90
25582;DHT22;13462;50.764;4.332;2022-11-18T12:56:54;13.20;99.90
25582;DHT22;13462;50.764;4.332;2022-11-18T12:59:28;13.20;99.90
25582;DHT22;13462;50.764;4.332;2022-11-18T13:04:36;13.70;99.90
25582;DHT22;13462;50.764;4.332;2022-11-18T13:07:04;13.80;99.90
25582;DHT22;13462;50.764;4.332;2022-11-18T13:09:33;13.80;99.90
25582;DHT22;13462;50.764;4.332;2022-11-18T13:12:13;13.70;99.90
25582;DHT22;13462;50.764;4.332;2022-11-18T13:14:42;13.60;99.90
25582;DHT22;13462;50.764;4.332;2022-11-18T13:17:28;13.50;99.90
25582;DHT22;13462;50.764;4.332;2022-11-18T13:22:54;13.00;99.90
25582;DHT22;13462;50.764;4.332;2022-11-18T13:25:38;12.90;99.90
25582;DHT22;13462;50.764;4.332;2022-11-18T13:28:31;12.60;99.90
25582;DHT22;13462;50.764;4.332;2022-11-18T13:33:40;12.30;99.90
25582;DHT22;13462;50.764;4.332;2022-11-18T13:36:22;12.20;99.90
25582;DHT22;13462;50.764;4.332;2022-11-18T13:38:56;12.10;99.90
25582;DHT22;13462;50.764;4.332;2022-11-18T13:41:22;12.00;99.90
25582;DHT22;13462;50.764;4.332;2022-11-18T13:43:49;11.90;99.90
25582;DHT22;13462;50.764;4.332;2022-11-18T13:46:18;12.00;99.90
25582;DHT22;13462;50.764;4.332;2022-11-18T13:48:55;11.90;99.90
25582;DHT22;13462;50.764;4.332;2022-11-18T13:51:22;11.80;99.90
25582;DHT22;13462;50.764;4.332;2022-11-18T13:53:49;11.90;99.90
25582;DHT22;13462;50.764;4.332;2022-11-18T13:56:19;11.90;99.90
25582;DHT22;13462;50.764;4.332;2022-11-18T13:58:57;11.90;99.90
25582;DHT22;13462;50.764;4.332;2022-11-18T14:01:29;11.80;99.90
25582;DHT22;13462;50.764;4.332;2022-11-18T14:04:00;11.60;99.90
25582;DHT22;13462;50.764;4.332;2022-11-18T14:06:30;11.60;99.90
25582;DHT22;13462;50.764;4.332;2022-11-18T14:11:39;11.70;99.90
25582;DHT22;13462;50.764;4.332;2022-11-18T14:14:07;11.60;99.90
25582;DHT22;13462;50.764;4.332;2022-11-18T14:16:39;11.50;99.90
25582;DHT22;13462;50.764;4.332;2022-11-18T14:19:05;11.50;99.90
25582;DHT22;13462;50.764;4.332;2022-11-18T14:21:33;11.60;99.90
25582;DHT22;13462;50.764;4.332;2022-11-18T14:24:00;11.50;99.90
25582;DHT22;13462;50.764;4.332;2022-11-18T14:26:34;11.50;99.90
25582;DHT22;13462;50.764;4.332;2022-11-18T14:29:15;11.50;99.90
25582;DHT22;13462;50.764;4.332;2022-11-18T14:32:02;11.40;99.90
25582;DHT22;13462;50.764;4.332;2022-11-18T14:34:28;11.40;99.90
25582;DHT22;13462;50.764;4.332;2022-11-18T14:36:55;11.50;99.90
25582;DHT22;13462;50.764;4.332;2022-11-18T14:39:29;11.30;99.90
25582;DHT22;13462;50.764;4.332;2022-11-18T14:41:56;11.30;99.90
25582;DHT22;13462;50.764;4.332;2022-11-18T14:44:24;11.40;99.90
25582;DHT22;13462;50.764;4.332;2022-11-18T14:47:05;11.50;99.90
25582;DHT22;13462;50.764;4.332;2022-11-18T14:49:42;11.50;99.90
25582;DHT22;13462;50.764;4.332;2022-11-18T14:52:09;11.50;99.90
25582;DHT22;13462;50.764;4.332;2022-11-18T14:54:34;11.50;99.90
25582;DHT22;13462;50.764;4.332;2022-11-18T14:57:02;11.40;99.90
25582;DHT22;13462;50.764;4.332;2022-11-18T14:59:30;11.50;99.90
25582;DHT22;13462;50.764;4.332;2022-11-18T15:02:02;11.50;99.90
25582;DHT22;13462;50.764;4.332;2022-11-18T15:04:27;11.40;99.90
25582;DHT22;13462;50.764;4.332;2022-11-18T15:06:53;11.50;99.90
25582;DHT22;13462;50.764;4.332;2022-11-18T15:09:19;11.60;99.90
25582;DHT22;13462;50.764;4.332;2022-11-18T15:11:44;11.60;99.90
25582;DHT22;13462;50.764;4.332;2022-11-18T15:14:10;11.60;99.90
25582;DHT22;13462;50.764;4.332;2022-11-18T15:16:41;11.60;99.90
25582;DHT22;13462;50.764;4.332;2022-11-18T15:19:12;11.50;99.90
25582;DHT22;13462;50.764;4.332;2022-11-18T15:21:39;11.50;99.90
25582;DHT22;13462;50.764;4.332;2022-11-18T15:24:04;11.50;99.90
25582;DHT22;13462;50.764;4.332;2022-11-18T15:26:35;11.50;99.90
25582;DHT22;13462;50.764;4.332;2022-11-18T15:29:19;11.60;99.90
25582;DHT22;13462;50.764;4.332;2022-11-18T15:31:46;11.50;99.90
25582;DHT22;13462;50.764;4.332;2022-11-18T15:34:12;11.50;99.90
25582;DHT22;13462;50.764;4.332;2022-11-18T15:36:38;11.50;99.90
25582;DHT22;13462;50.764;4.332;2022-11-18T15:39:13;11.60;99.90
25582;DHT22;13462;50.764;4.332;2022-11-18T15:41:40;11.50;99.90
25582;DHT22;13462;50.764;4.332;2022-11-18T15:44:08;11.50;99.90
25582;DHT22;13462;50.764;4.332;2022-11-18T15:46:34;11.40;99.90
25582;DHT22;13462;50.764;4.332;2022-11-18T15:49:00;11.40;99.90
25582;DHT22;13462;50.764;4.332;2022-11-18T15:51:27;11.40;99.90
25582;DHT22;13462;50.764;4.332;2022-11-18T15:53:53;11.50;99.90
25582;DHT22;13462;50.764;4.332;2022-11-18T15:58:54;11.20;99.90
25582;DHT22;13462;50.764;4.332;2022-11-18T16:01:20;11.30;99.90
25582;DHT22;13462;50.764;4.332;2022-11-18T16:03:46;11.20;99.90
25582;DHT22;13462;50.764;4.332;2022-11-18T16:06:11;11.30;99.90
25582;DHT22;13462;50.764;4.332;2022-11-18T16:08:37;11.30;99.90
25582;DHT22;13462;50.764;4.332;2022-11-18T16:11:03;11.20;99.90
25582;DHT22;13462;50.764;4.332;2022-11-18T16:13:47;11.10;99.90
25582;DHT22;13462;50.764;4.332;2022-11-18T16:16:20;11.00;99.90
25582;DHT22;13462;50.764;4.332;2022-11-18T16:18:45;11.00;99.90
25582;DHT22;13462;50.764;4.332;2022-11-18T16:21:11;11.00;99.90
25582;DHT22;13462;50.764;4.332;2022-11-18T16:23:37;11.00;99.90
25582;DHT22;13462;50.764;4.332;2022-11-18T16:26:03;10.90;99.90
25582;DHT22;13462;50.764;4.332;2022-11-18T16:28:29;11.00;99.90
25582;DHT22;13462;50.764;4.332;2022-11-18T16:30:54;11.00;99.90
25582;DHT22;13462;50.764;4.332;2022-11-18T16:33:38;11.00;99.90
25582;DHT22;13462;50.764;4.332;2022-11-18T16:36:04;10.90;99.90
25582;DHT22;13462;50.764;4.332;2022-11-18T16:38:29;10.90;99.90
25582;DHT22;13462;50.764;4.332;2022-11-18T16:40:58;10.90;99.90
25582;DHT22;13462;50.764;4.332;2022-11-18T16:43:24;10.90;99.90
25582;DHT22;13462;50.764;4.332;2022-11-18T16:45:52;10.90;99.90
25582;DHT22;13462;50.764;4.332;2022-11-18T16:48:18;10.80;99.90
25582;DHT22;13462;50.764;4.332;2022-11-18T16:50:44;10.80;99.90
25582;DHT22;13462;50.764;4.332;2022-11-18T16:53:10;10.80;99.90
25582;DHT22;13462;50.764;4.332;2022-11-18T16:55:35;10.80;99.90
25582;DHT22;13462;50.764;4.332;2022-11-18T16:58:01;10.80;99.90
25582;DHT22;13462;50.764;4.332;2022-11-18T17:00:26;10.80;99.90
25582;DHT22;13462;50.764;4.332;2022-11-18T17:02:52;10.70;99.90
25582;DHT22;13462;50.764;4.332;2022-11-18T17:05:17;10.80;99.90
25582;DHT22;13462;50.764;4.332;2022-11-18T17:07:43;10.70;99.90
25582;DHT22;13462;50.764;4.332;2022-11-18T17:10:09;10.60;99.90
25582;DHT22;13462;50.764;4.332;2022-11-18T17:12:45;10.60;99.90
25582;DHT22;13462;50.764;4.332;2022-11-18T17:15:11;10.60;99.90
25582;DHT22;13462;50.764;4.332;2022-11-18T17:17:37;10.60;99.90
25582;DHT22;13462;50.764;4.332;2022-11-18T17:20:03;10.50;99.90
25582;DHT22;13462;50.764;4.332;2022-11-18T17:22:29;10.50;99.90
25582;DHT22;13462;50.764;4.332;2022-11-18T17:24:54;10.50;99.90
25582;DHT22;13462;50.764;4.332;2022-11-18T17:27:20;10.50;99.90
25582;DHT22;13462;50.764;4.332;2022-11-18T17:29:45;10.40;99.90
25582;DHT22;13462;50.764;4.332;2022-11-18T17:32:12;10.40;99.90
25582;DHT22;13462;50.764;4.332;2022-11-18T17:34:37;10.40;99.90
25582;DHT22;13462;50.764;4.332;2022-11-18T17:37:03;10.40;99.90
25582;DHT22;13462;50.764;4.332;2022-11-18T17:39:29;10.40;99.90
25582;DHT22;13462;50.764;4.332;2022-11-18T17:41:56;10.40;99.90
25582;DHT22;13462;50.764;4.332;2022-11-18T17:44:42;10.40;99.90
25582;DHT22;13462;50.764;4.332;2022-11-18T17:47:08;10.30;99.90
25582;DHT22;13462;50.764;4.332;2022-11-18T17:49:33;10.30;99.90
25582;DHT22;13462;50.764;4.332;2022-11-18T17:51:59;10.40;99.90
25582;DHT22;13462;50.764;4.332;2022-11-18T17:54:25;10.30;99.90
25582;DHT22;13462;50.764;4.332;2022-11-18T17:56:53;10.20;99.90
25582;DHT22;13462;50.764;4.332;2022-11-18T17:59:19;10.10;99.90
25582;DHT22;13462;50.764;4.332;2022-11-18T18:01:51;10.10;99.90
25582;DHT22;13462;50.764;4.332;2022-11-18T18:04:17;10.10;99.90